sensor_id;sensor_type;location;lat;lon;timestamp;temperature;humidity
7694;DHT22;3889;48.162;11.510;2023-04-24T00:00:47;10.80;99.90
7694;DHT22;3889;48.162;11.510;2023-04-24T00:03:16;10.80;99.90
7694;DHT22;3889;48.162;11.510;2023-04-24T00:05:48;10.80;99.90
7694;DHT22;3889;48.162;11.510;2023-04-24T00:08:16;10.80;99.90
7694;DHT22;3889;48.162;11.510;2023-04-24T00:10:44;10.80;99.90
7694;DHT22;3889;48.162;11.510;2023-04-24T00:13:12;10.80;99.90
7694;DHT22;3889;48.162;11.510;2023-04-24T00:15:40;10.80;99.90
7694;DHT22;3889;48.162;11.510;2023-04-24T00:18:07;10.80;99.90
7694;DHT22;3889;48.162;11.510;2023-04-24T00:20:37;10.80;99.90
7694;DHT22;3889;48.162;11.510;2023-04-24T00:23:04;10.80;99.90
7694;DHT22;3889;48.162;11.510;2023-04-24T00:25:32;10.80;99.90
7694;DHT22;3889;48.162;11.510;2023-04-24T00:28:00;10.70;99.90
7694;DHT22;3889;48.162;11.510;2023-04-24T00:30:28;10.80;99.90
7694;DHT22;3889;48.162;11.510;2023-04-24T00:32:57;10.70;99.90
7694;DHT22;3889;48.162;11.510;2023-04-24T00:35:25;10.70;99.90
7694;DHT22;3889;48.162;11.510;2023-04-24T00:37:54;10.70;99.90
7694;DHT22;3889;48.162;11.510;2023-04-24T00:40:22;10.70;99.90
7694;DHT22;3889;48.162;11.510;2023-04-24T00:42:50;10.70;99.90
7694;DHT22;3889;48.162;11.510;2023-04-24T00:45:18;10.60;99.90
7694;DHT22;3889;48.162;11.510;2023-04-24T00:47:46;10.60;99.90
7694;DHT22;3889;48.162;11.510;2023-04-24T00:50:16;10.60;99.90
7694;DHT22;3889;48.162;11.510;2023-04-24T00:52:44;10.50;99.90
7694;DHT22;3889;48.162;11.510;2023-04-24T00:55:13;10.50;99.90
7694;DHT22;3889;48.162;11.510;2023-04-24T00:57:41;10.40;99.90
7694;DHT22;3889;48.162;11.510;2023-04-24T01:00:11;10.40;99.90
7694;DHT22;3889;48.162;11.510;2023-04-24T01:02:40;10.40;99.90
7694;DHT22;3889;48.162;11.510;2023-04-24T01:05:12;10.40;99.90
7694;DHT22;3889;48.162;11.510;2023-04-24T01:07:40;10.40;99.90
7694;DHT22;3889;48.162;11.510;2023-04-24T01:10:10;10.40;99.90
7694;DHT22;3889;48.162;11.510;2023-04-24T01:12:40;10.40;99.90
7694;DHT22;3889;48.162;11.510;2023-04-24T01:15:09;10.40;99.90
7694;DHT22;3889;48.162;11.510;2023-04-24T01:17:37;10.40;99.90
7694;DHT22;3889;48.162;11.510;2023-04-24T01:20:06;10.30;99.90
7694;DHT22;3889;48.162;11.510;2023-04-24T01:22:36;10.20;99.90
7694;DHT22;3889;48.162;11.510;2023-04-24T01:25:05;10.30;99.90
7694;DHT22;3889;48.162;11.510;2023-04-24T01:27:33;10.30;99.90
7694;DHT22;3889;48.162;11.510;2023-04-24T01:30:01;10.20;99.90
7694;DHT22;3889;48.162;11.510;2023-04-24T01:32:29;10.20;99.90
7694;DHT22;3889;48.162;11.510;2023-04-24T01:34:57;10.20;99.90
7694;DHT22;3889;48.162;11.510;2023-04-24T01:37:25;10.20;99.90
7694;DHT22;3889;48.162;11.510;2023-04-24T01:39:54;10.20;99.90
7694;DHT22;3889;48.162;11.510;2023-04-24T01:42:22;10.20;99.90
7694;DHT22;3889;48.162;11.510;2023-04-24T01:44:50;10.20;99.90
7694;DHT22;3889;48.162;11.510;2023-04-24T01:47:19;10.20;99.90
7694;DHT22;3889;48.162;11.510;2023-04-24T01:49:48;10.20;99.90
7694;DHT22;3889;48.162;11.510;2023-04-24T01:52:16;10.20;99.90
7694;DHT22;3889;48.162;11.510;2023-04-24T01:54:45;10.10;99.90
7694;DHT22;3889;48.162;11.510;2023-04-24T01:57:14;10.10;99.90
7694;DHT22;3889;48.162;11.510;2023-04-24T01:59:43;10.10;99.90
7694;DHT22;3889;48.162;11.510;2023-04-24T02:02:11;10.10;99.90
7694;DHT22;3889;48.162;11.510;2023-04-24T02:04:39;10.00;99.90
7694;DHT22;3889;48.162;11.510;2023-04-24T02:07:07;10.00;99.90
7694;DHT22;3889;48.162;11.510;2023-04-24T02:09:35;10.00;99.90
7694;DHT22;3889;48.162;11.510;2023-04-24T02:12:03;10.00;99.90
7694;DHT22;3889;48.162;11.510;2023-04-24T02:14:32;10.00;99.90
7694;DHT22;3889;48.162;11.510;2023-04-24T02:17:00;10.00;99.90
7694;DHT22;3889;48.162;11.510;2023-04-24T02:19:28;10.00;99.90
7694;DHT22;3889;48.162;11.510;2023-04-24T02:21:56;9.90;99.90
7694;DHT22;3889;48.162;11.510;2023-04-24T02:24:23;10.00;99.90
7694;DHT22;3889;48.162;11.510;2023-04-24T02:26:51;10.00;99.90
7694;DHT22;3889;48.162;11.510;2023-04-24T02:29:19;10.10;99.90
7694;DHT22;3889;48.162;11.510;2023-04-24T02:31:48;10.10;99.90
7694;DHT22;3889;48.162;11.510;2023-04-24T02:34:16;10.10;99.90
7694;DHT22;3889;48.162;11.510;2023-04-24T02:36:44;10.10;99.90
7694;DHT22;3889;48.162;11.510;2023-04-24T02:39:12;10.10;99.90
7694;DHT22;3889;48.162;11.510;2023-04-24T02:41:43;10.00;99.90
7694;DHT22;3889;48.162;11.510;2023-04-24T02:44:10;10.00;99.90
7694;DHT22;3889;48.162;11.510;2023-04-24T02:46:38;10.00;99.90
7694;DHT22;3889;48.162;11.510;2023-04-24T02:49:09;10.00;99.90
7694;DHT22;3889;48.162;11.510;2023-04-24T02:51:38;10.00;99.90
7694;DHT22;3889;48.162;11.510;2023-04-24T02:54:07;10.00;99.90
7694;DHT22;3889;48.162;11.510;2023-04-24T02:56:36;10.00;99.90
7694;DHT22;3889;48.162;11.510;2023-04-24T02:59:04;10.00;99.90
7694;DHT22;3889;48.162;11.510;2023-04-24T03:01:32;9.90;99.90
7694;DHT22;3889;48.162;11.510;2023-04-24T03:04:00;9.90;99.90
7694;DHT22;3889;48.162;11.510;2023-04-24T03:06:30;9.80;99.90
7694;DHT22;3889;48.162;11.510;2023-04-24T03:08:57;9.80;99.90
7694;DHT22;3889;48.162;11.510;2023-04-24T03:11:25;9.80;99.90
7694;DHT22;3889;48.162;11.510;2023-04-24T03:13:53;9.80;99.90
7694;DHT22;3889;48.162;11.510;2023-04-24T03:16:21;9.80;99.90
7694;DHT22;3889;48.162;11.510;2023-04-24T03:18:49;9.90;99.90
7694;DHT22;3889;48.162;11.510;2023-04-24T03:21:17;9.80;99.90
7694;DHT22;3889;48.162;11.510;2023-04-24T03:23:46;9.80;99.90
7694;DHT22;3889;48.162;11.510;2023-04-24T03:26:14;9.90;99.90
7694;DHT22;3889;48.162;11.510;2023-04-24T03:28:41;9.70;99.90
7694;DHT22;3889;48.162;11.510;2023-04-24T03:31:09;9.80;99.90
7694;DHT22;3889;48.162;11.510;2023-04-24T03:33:37;9.80;99.90
7694;DHT22;3889;48.162;11.510;2023-04-24T03:36:05;9.80;99.90
7694;DHT22;3889;48.162;11.510;2023-04-24T03:38:33;9.80;99.90
7694;DHT22;3889;48.162;11.510;2023-04-24T03:41:02;9.80;99.90
7694;DHT22;3889;48.162;11.510;2023-04-24T03:43:30;9.80;99.90
7694;DHT22;3889;48.162;11.510;2023-04-24T03:45:59;9.80;99.90
7694;DHT22;3889;48.162;11.510;2023-04-24T03:48:28;9.70;99.90
7694;DHT22;3889;48.162;11.510;2023-04-24T03:50:55;9.70;99.90
7694;DHT22;3889;48.162;11.510;2023-04-24T03:53:23;9.80;99.90
7694;DHT22;3889;48.162;11.510;2023-04-24T03:55:52;9.80;99.90
7694;DHT22;3889;48.162;11.510;2023-04-24T03:58:21;9.80;99.90
7694;DHT22;3889;48.162;11.510;2023-04-24T04:00:49;9.80;99.90
7694;DHT22;3889;48.162;11.510;2023-04-24T04:03:17;9.80;99.90
7694;DHT22;3889;48.162;11.510;2023-04-24T04:05:45;9.80;99.90
7694;DHT22;3889;48.162;11.510;2023-04-24T04:08:13;9.80;99.90
7694;DHT22;3889;48.162;11.510;2023-04-24T04:10:41;9.80;99.90
7694;DHT22;3889;48.162;11.510;2023-04-24T04:13:09;9.80;99.90
7694;DHT22;3889;48.162;11.510;2023-04-24T04:15:38;9.80;99.90
7694;DHT22;3889;48.162;11.510;2023-04-24T04:18:06;9.70;99.90
7694;DHT22;3889;48.162;11.510;2023-04-24T04:20:35;9.70;99.90
7694;DHT22;3889;48.162;11.510;2023-04-24T04:23:03;9.80;99.90
7694;DHT22;3889;48.162;11.510;2023-04-24T04:25:30;9.80;99.90
7694;DHT22;3889;48.162;11.510;2023-04-24T04:27:59;9.80;99.90
7694;DHT22;3889;48.162;11.510;2023-04-24T04:30:27;9.70;99.90
7694;DHT22;3889;48.162;11.510;2023-04-24T04:32:57;9.80;99.90
7694;DHT22;3889;48.162;11.510;2023-04-24T04:35:25;9.70;99.90
7694;DHT22;3889;48.162;11.510;2023-04-24T04:37:53;9.70;99.90
7694;DHT22;3889;48.162;11.510;2023-04-24T04:40:21;9.70;99.90
7694;DHT22;3889;48.162;11.510;2023-04-24T04:42:49;9.80;99.90
7694;DHT22;3889;48.162;11.510;2023-04-24T04:45:19;9.70;99.90
7694;DHT22;3889;48.162;11.510;2023-04-24T04:47:47;9.70;99.90
7694;DHT22;3889;48.162;11.510;2023-04-24T04:50:17;9.70;99.90
7694;DHT22;3889;48.162;11.510;2023-04-24T04:52:46;9.70;99.90
7694;DHT22;3889;48.162;11.510;2023-04-24T04:55:14;9.70;99.90
7694;DHT22;3889;48.162;11.510;2023-04-24T04:57:41;9.70;99.90
7694;DHT22;3889;48.162;11.510;2023-04-24T05:00:10;9.70;99.90
7694;DHT22;3889;48.162;11.510;2023-04-24T05:02:39;9.80;99.90
7694;DHT22;3889;48.162;11.510;2023-04-24T05:05:07;9.80;99.90
7694;DHT22;3889;48.162;11.510;2023-04-24T05:07:37;9.70;99.90
7694;DHT22;3889;48.162;11.510;2023-04-24T05:10:06;9.60;99.90
7694;DHT22;3889;48.162;11.510;2023-04-24T05:12:34;9.80;99.90
7694;DHT22;3889;48.162;11.510;2023-04-24T05:15:02;9.80;99.90
7694;DHT22;3889;48.162;11.510;2023-04-24T05:17:30;9.80;99.90
7694;DHT22;3889;48.162;11.510;2023-04-24T05:19:58;9.80;99.90
7694;DHT22;3889;48.162;11.510;2023-04-24T05:22:27;9.80;99.90
7694;DHT22;3889;48.162;11.510;2023-04-24T05:24:56;9.90;99.90
7694;DHT22;3889;48.162;11.510;2023-04-24T05:27:24;9.90;99.90
7694;DHT22;3889;48.162;11.510;2023-04-24T05:29:52;10.00;99.90
7694;DHT22;3889;48.162;11.510;2023-04-24T05:32:20;10.00;99.90
7694;DHT22;3889;48.162;11.510;2023-04-24T05:34:48;10.00;99.90
7694;DHT22;3889;48.162;11.510;2023-04-24T05:37:17;10.10;99.90
7694;DHT22;3889;48.162;11.510;2023-04-24T05:39:45;10.10;99.90
7694;DHT22;3889;48.162;11.510;2023-04-24T05:42:15;10.10;99.90
7694;DHT22;3889;48.162;11.510;2023-04-24T05:44:42;10.10;99.90
7694;DHT22;3889;48.162;11.510;2023-04-24T05:47:10;10.10;99.90
7694;DHT22;3889;48.162;11.510;2023-04-24T05:49:38;10.10;99.90
7694;DHT22;3889;48.162;11.510;2023-04-24T05:52:06;10.10;99.90
7694;DHT22;3889;48.162;11.510;2023-04-24T05:54:35;10.10;99.90
7694;DHT22;3889;48.162;11.510;2023-04-24T05:57:03;10.10;99.90
7694;DHT22;3889;48.162;11.510;2023-04-24T05:59:37;10.10;99.90
7694;DHT22;3889;48.162;11.510;2023-04-24T06:02:06;10.30;99.90
7694;DHT22;3889;48.162;11.510;2023-04-24T06:04:34;10.30;99.90
7694;DHT22;3889;48.162;11.510;2023-04-24T06:07:02;10.40;99.90
7694;DHT22;3889;48.162;11.510;2023-04-24T06:09:30;10.50;99.90
7694;DHT22;3889;48.162;11.510;2023-04-24T06:11:58;10.50;99.90
7694;DHT22;3889;48.162;11.510;2023-04-24T06:14:26;10.70;99.90
7694;DHT22;3889;48.162;11.510;2023-04-24T06:16:55;10.80;99.90
7694;DHT22;3889;48.162;11.510;2023-04-24T06:19:23;10.80;99.90
7694;DHT22;3889;48.162;11.510;2023-04-24T06:21:51;10.90;99.90
7694;DHT22;3889;48.162;11.510;2023-04-24T06:24:19;10.90;99.90
7694;DHT22;3889;48.162;11.510;2023-04-24T06:26:47;10.90;99.90
7694;DHT22;3889;48.162;11.510;2023-04-24T06:29:15;10.90;99.90
7694;DHT22;3889;48.162;11.510;2023-04-24T06:31:43;10.60;99.90
7694;DHT22;3889;48.162;11.510;2023-04-24T06:34:12;10.80;99.90
7694;DHT22;3889;48.162;11.510;2023-04-24T06:36:40;10.80;99.90
7694;DHT22;3889;48.162;11.510;2023-04-24T06:39:09;10.90;99.90
7694;DHT22;3889;48.162;11.510;2023-04-24T06:41:36;10.90;99.90
7694;DHT22;3889;48.162;11.510;2023-04-24T06:44:04;11.00;99.90
7694;DHT22;3889;48.162;11.510;2023-04-24T06:46:32;11.10;99.90
7694;DHT22;3889;48.162;11.510;2023-04-24T06:49:00;11.30;99.90
7694;DHT22;3889;48.162;11.510;2023-04-24T06:51:30;11.10;99.90
7694;DHT22;3889;48.162;11.510;2023-04-24T06:53:59;11.20;99.90
7694;DHT22;3889;48.162;11.510;2023-04-24T06:56:28;11.30;99.90
7694;DHT22;3889;48.162;11.510;2023-04-24T06:58:56;11.30;99.90
7694;DHT22;3889;48.162;11.510;2023-04-24T07:01:24;11.30;99.90
7694;DHT22;3889;48.162;11.510;2023-04-24T07:03:52;11.40;99.90
7694;DHT22;3889;48.162;11.510;2023-04-24T07:06:20;11.50;99.90
7694;DHT22;3889;48.162;11.510;2023-04-24T07:08:51;11.60;99.90
7694;DHT22;3889;48.162;11.510;2023-04-24T07:11:19;11.80;99.90
7694;DHT22;3889;48.162;11.510;2023-04-24T07:13:47;12.00;99.90
7694;DHT22;3889;48.162;11.510;2023-04-24T07:16:15;11.80;99.90
7694;DHT22;3889;48.162;11.510;2023-04-24T07:18:43;11.90;99.90
7694;DHT22;3889;48.162;11.510;2023-04-24T07:21:11;11.90;99.90
7694;DHT22;3889;48.162;11.510;2023-04-24T07:23:38;12.00;99.90
7694;DHT22;3889;48.162;11.510;2023-04-24T07:26:09;11.70;99.90
7694;DHT22;3889;48.162;11.510;2023-04-24T07:28:37;11.70;99.90
7694;DHT22;3889;48.162;11.510;2023-04-24T07:31:05;11.70;99.90
7694;DHT22;3889;48.162;11.510;2023-04-24T07:33:33;11.60;99.90
7694;DHT22;3889;48.162;11.510;2023-04-24T07:36:02;11.50;99.90
7694;DHT22;3889;48.162;11.510;2023-04-24T07:38:31;11.80;99.90
7694;DHT22;3889;48.162;11.510;2023-04-24T07:40:59;11.80;99.90
7694;DHT22;3889;48.162;11.510;2023-04-24T07:43:28;11.80;99.90
7694;DHT22;3889;48.162;11.510;2023-04-24T07:45:56;11.70;99.90
7694;DHT22;3889;48.162;11.510;2023-04-24T07:48:24;11.70;99.90
7694;DHT22;3889;48.162;11.510;2023-04-24T07:50:52;11.70;99.90
7694;DHT22;3889;48.162;11.510;2023-04-24T07:53:21;11.80;99.90
7694;DHT22;3889;48.162;11.510;2023-04-24T07:55:48;11.70;99.90
7694;DHT22;3889;48.162;11.510;2023-04-24T07:58:16;11.80;99.90
7694;DHT22;3889;48.162;11.510;2023-04-24T08:00:45;11.90;99.90
7694;DHT22;3889;48.162;11.510;2023-04-24T08:03:13;11.90;99.90
7694;DHT22;3889;48.162;11.510;2023-04-24T08:05:45;11.90;99.90
7694;DHT22;3889;48.162;11.510;2023-04-24T08:08:13;11.90;99.90
7694;DHT22;3889;48.162;11.510;2023-04-24T08:10:41;11.90;99.90
7694;DHT22;3889;48.162;11.510;2023-04-24T08:13:09;11.80;99.90
7694;DHT22;3889;48.162;11.510;2023-04-24T08:15:38;11.80;99.90
7694;DHT22;3889;48.162;11.510;2023-04-24T08:18:07;11.80;99.90
7694;DHT22;3889;48.162;11.510;2023-04-24T08:20:35;11.70;99.90
7694;DHT22;3889;48.162;11.510;2023-04-24T08:23:03;11.70;99.90
7694;DHT22;3889;48.162;11.510;2023-04-24T08:25:32;11.60;99.90
7694;DHT22;3889;48.162;11.510;2023-04-24T08:28:02;11.50;99.90
7694;DHT22;3889;48.162;11.510;2023-04-24T08:30:30;11.50;99.90
7694;DHT22;3889;48.162;11.510;2023-04-24T08:32:58;11.60;99.90
7694;DHT22;3889;48.162;11.510;2023-04-24T08:35:27;11.50;99.90
7694;DHT22;3889;48.162;11.510;2023-04-24T08:37:55;11.40;99.90
7694;DHT22;3889;48.162;11.510;2023-04-24T08:40:29;11.20;99.90
7694;DHT22;3889;48.162;11.510;2023-04-24T08:42:58;11.10;99.90
7694;DHT22;3889;48.162;11.510;2023-04-24T08:45:27;11.10;99.90
7694;DHT22;3889;48.162;11.510;2023-04-24T08:47:55;11.30;99.90
7694;DHT22;3889;48.162;11.510;2023-04-24T08:50:23;11.40;99.90
7694;DHT22;3889;48.162;11.510;2023-04-24T08:52:52;11.60;99.90
7694;DHT22;3889;48.162;11.510;2023-04-24T08:55:20;11.70;99.90
7694;DHT22;3889;48.162;11.510;2023-04-24T08:57:51;11.70;99.90
7694;DHT22;3889;48.162;11.510;2023-04-24T09:00:21;11.70;99.90
7694;DHT22;3889;48.162;11.510;2023-04-24T09:02:50;11.60;99.90
7694;DHT22;3889;48.162;11.510;2023-04-24T09:05:18;11.40;99.90
7694;DHT22;3889;48.162;11.510;2023-04-24T09:07:53;11.40;99.90
7694;DHT22;3889;48.162;11.510;2023-04-24T09:10:23;11.20;99.90
7694;DHT22;3889;48.162;11.510;2023-04-24T09:12:52;11.10;99.90
7694;DHT22;3889;48.162;11.510;2023-04-24T09:15:20;11.20;99.90
7694;DHT22;3889;48.162;11.510;2023-04-24T09:17:48;11.30;99.90
7694;DHT22;3889;48.162;11.510;2023-04-24T09:20:16;11.40;99.90
7694;DHT22;3889;48.162;11.510;2023-04-24T09:22:45;11.60;99.90
7694;DHT22;3889;48.162;11.510;2023-04-24T09:25:14;11.70;99.90
7694;DHT22;3889;48.162;11.510;2023-04-24T09:27:43;11.70;99.90
7694;DHT22;3889;48.162;11.510;2023-04-24T09:30:13;11.80;99.90
7694;DHT22;3889;48.162;11.510;2023-04-24T09:32:41;12.00;99.90
7694;DHT22;3889;48.162;11.510;2023-04-24T09:35:11;12.10;99.90
7694;DHT22;3889;48.162;11.510;2023-04-24T09:37:41;11.90;99.90
7694;DHT22;3889;48.162;11.510;2023-04-24T09:40:10;12.10;99.90
7694;DHT22;3889;48.162;11.510;2023-04-24T09:42:43;12.30;99.90
7694;DHT22;3889;48.162;11.510;2023-04-24T09:45:12;12.50;99.90
7694;DHT22;3889;48.162;11.510;2023-04-24T09:47:41;12.60;99.90
7694;DHT22;3889;48.162;11.510;2023-04-24T09:50:12;12.70;99.90
7694;DHT22;3889;48.162;11.510;2023-04-24T09:52:42;12.60;99.90
7694;DHT22;3889;48.162;11.510;2023-04-24T09:55:12;12.80;99.90
7694;DHT22;3889;48.162;11.510;2023-04-24T09:57:49;13.20;99.90
7694;DHT22;3889;48.162;11.510;2023-04-24T10:00:18;13.20;99.90
7694;DHT22;3889;48.162;11.510;2023-04-24T10:02:50;13.00;99.90
7694;DHT22;3889;48.162;11.510;2023-04-24T10:05:23;13.20;99.90
7694;DHT22;3889;48.162;11.510;2023-04-24T10:07:51;13.40;99.90
7694;DHT22;3889;48.162;11.510;2023-04-24T10:10:19;13.60;99.90
7694;DHT22;3889;48.162;11.510;2023-04-24T10:12:49;13.60;99.90
7694;DHT22;3889;48.162;11.510;2023-04-24T10:15:18;13.50;99.90
7694;DHT22;3889;48.162;11.510;2023-04-24T10:17:48;13.30;99.90
7694;DHT22;3889;48.162;11.510;2023-04-24T10:20:20;13.20;99.90
7694;DHT22;3889;48.162;11.510;2023-04-24T10:22:50;13.10;99.90
7694;DHT22;3889;48.162;11.510;2023-04-24T10:25:19;13.20;99.90
7694;DHT22;3889;48.162;11.510;2023-04-24T10:27:50;13.30;99.90
7694;DHT22;3889;48.162;11.510;2023-04-24T10:30:19;13.10;99.90
7694;DHT22;3889;48.162;11.510;2023-04-24T10:32:47;13.20;99.90
7694;DHT22;3889;48.162;11.510;2023-04-24T10:35:17;13.30;99.90
7694;DHT22;3889;48.162;11.510;2023-04-24T10:37:50;13.40;99.90
7694;DHT22;3889;48.162;11.510;2023-04-24T10:40:25;13.50;99.90
7694;DHT22;3889;48.162;11.510;2023-04-24T10:42:56;13.40;99.90
7694;DHT22;3889;48.162;11.510;2023-04-24T10:45:25;13.10;99.90
7694;DHT22;3889;48.162;11.510;2023-04-24T10:47:56;12.90;99.90
7694;DHT22;3889;48.162;11.510;2023-04-24T10:50:26;12.50;99.90
7694;DHT22;3889;48.162;11.510;2023-04-24T10:53:05;11.70;99.90
7694;DHT22;3889;48.162;11.510;2023-04-24T10:55:41;11.00;99.90
7694;DHT22;3889;48.162;11.510;2023-04-24T10:58:10;10.60;99.90
7694;DHT22;3889;48.162;11.510;2023-04-24T11:00:40;10.30;99.90
7694;DHT22;3889;48.162;11.510;2023-04-24T11:03:23;10.40;99.90
7694;DHT22;3889;48.162;11.510;2023-04-24T11:05:57;10.50;99.90
7694;DHT22;3889;48.162;11.510;2023-04-24T11:08:30;10.70;99.90
7694;DHT22;3889;48.162;11.510;2023-04-24T11:11:03;10.90;99.90
7694;DHT22;3889;48.162;11.510;2023-04-24T11:16:42;11.70;99.90
7694;DHT22;3889;48.162;11.510;2023-04-24T11:19:20;12.00;99.90
7694;DHT22;3889;48.162;11.510;2023-04-24T11:21:55;12.20;99.90
7694;DHT22;3889;48.162;11.510;2023-04-24T11:24:31;12.60;99.90
7694;DHT22;3889;48.162;11.510;2023-04-24T11:27:06;13.00;99.90
7694;DHT22;3889;48.162;11.510;2023-04-24T11:29:42;12.90;99.90
7694;DHT22;3889;48.162;11.510;2023-04-24T11:32:25;12.70;99.90
7694;DHT22;3889;48.162;11.510;2023-04-24T11:34:55;12.70;99.90
7694;DHT22;3889;48.162;11.510;2023-04-24T11:37:23;12.70;99.90
7694;DHT22;3889;48.162;11.510;2023-04-24T11:39:53;12.30;99.90
7694;DHT22;3889;48.162;11.510;2023-04-24T11:42:21;11.90;99.90
7694;DHT22;3889;48.162;11.510;2023-04-24T11:44:51;12.20;99.90
7694;DHT22;3889;48.162;11.510;2023-04-24T11:47:27;12.30;99.90
7694;DHT22;3889;48.162;11.510;2023-04-24T11:49:55;12.70;99.90
7694;DHT22;3889;48.162;11.510;2023-04-24T11:52:23;13.10;99.90
7694;DHT22;3889;48.162;11.510;2023-04-24T11:54:51;13.10;99.90
7694;DHT22;3889;48.162;11.510;2023-04-24T11:57:20;13.20;99.90
7694;DHT22;3889;48.162;11.510;2023-04-24T11:59:49;13.30;99.90
7694;DHT22;3889;48.162;11.510;2023-04-24T12:02:22;13.50;99.90
7694;DHT22;3889;48.162;11.510;2023-04-24T12:04:52;13.60;99.90
7694;DHT22;3889;48.162;11.510;2023-04-24T12:07:20;13.60;99.90
7694;DHT22;3889;48.162;11.510;2023-04-24T12:09:54;13.60;99.90
7694;DHT22;3889;48.162;11.510;2023-04-24T12:12:25;13.40;99.90
7694;DHT22;3889;48.162;11.510;2023-04-24T12:14:54;13.40;99.90
7694;DHT22;3889;48.162;11.510;2023-04-24T12:17:28;13.40;99.90
7694;DHT22;3889;48.162;11.510;2023-04-24T12:19:58;13.50;99.90
7694;DHT22;3889;48.162;11.510;2023-04-24T12:22:27;13.50;99.90
7694;DHT22;3889;48.162;11.510;2023-04-24T12:24:56;13.70;99.90
7694;DHT22;3889;48.162;11.510;2023-04-24T12:27:25;13.70;99.90
7694;DHT22;3889;48.162;11.510;2023-04-24T12:29:53;14.10;99.90
7694;DHT22;3889;48.162;11.510;2023-04-24T12:32:23;14.00;99.90
7694;DHT22;3889;48.162;11.510;2023-04-24T12:34:55;14.10;99.90
7694;DHT22;3889;48.162;11.510;2023-04-24T12:37:24;14.10;99.90
7694;DHT22;3889;48.162;11.510;2023-04-24T12:40:00;14.20;99.90
7694;DHT22;3889;48.162;11.510;2023-04-24T12:42:29;14.30;99.90
7694;DHT22;3889;48.162;11.510;2023-04-24T12:44:58;14.20;99.90
7694;DHT22;3889;48.162;11.510;2023-04-24T12:47:27;14.20;99.90
7694;DHT22;3889;48.162;11.510;2023-04-24T12:49:57;14.20;99.90
7694;DHT22;3889;48.162;11.510;2023-04-24T12:52:26;14.10;99.90
7694;DHT22;3889;48.162;11.510;2023-04-24T12:54:55;14.10;99.90
7694;DHT22;3889;48.162;11.510;2023-04-24T12:57:24;14.10;99.90
7694;DHT22;3889;48.162;11.510;2023-04-24T12:59:54;14.00;99.90
7694;DHT22;3889;48.162;11.510;2023-04-24T13:02:22;14.10;99.90
7694;DHT22;3889;48.162;11.510;2023-04-24T13:04:50;13.80;99.90
7694;DHT22;3889;48.162;11.510;2023-04-24T13:07:20;13.50;99.90
7694;DHT22;3889;48.162;11.510;2023-04-24T13:09:49;13.30;99.90
7694;DHT22;3889;48.162;11.510;2023-04-24T13:12:18;12.80;99.90
7694;DHT22;3889;48.162;11.510;2023-04-24T13:14:46;12.60;99.90
7694;DHT22;3889;48.162;11.510;2023-04-24T13:17:15;12.80;99.90
7694;DHT22;3889;48.162;11.510;2023-04-24T13:19:43;13.00;99.90
7694;DHT22;3889;48.162;11.510;2023-04-24T13:22:12;13.20;99.90
7694;DHT22;3889;48.162;11.510;2023-04-24T13:24:42;13.20;99.90
7694;DHT22;3889;48.162;11.510;2023-04-24T13:27:09;13.40;99.90
7694;DHT22;3889;48.162;11.510;2023-04-24T13:29:37;13.60;99.90
7694;DHT22;3889;48.162;11.510;2023-04-24T13:32:06;14.00;99.90
7694;DHT22;3889;48.162;11.510;2023-04-24T13:34:33;14.20;99.90
7694;DHT22;3889;48.162;11.510;2023-04-24T13:37:03;14.30;99.90
7694;DHT22;3889;48.162;11.510;2023-04-24T13:39:32;14.20;99.90
7694;DHT22;3889;48.162;11.510;2023-04-24T13:42:02;14.20;99.90
7694;DHT22;3889;48.162;11.510;2023-04-24T13:44:31;14.00;99.90
7694;DHT22;3889;48.162;11.510;2023-04-24T13:46:59;14.00;99.90
7694;DHT22;3889;48.162;11.510;2023-04-24T13:49:27;13.90;99.90
7694;DHT22;3889;48.162;11.510;2023-04-24T13:51:55;14.00;99.90
7694;DHT22;3889;48.162;11.510;2023-04-24T13:54:24;14.00;99.90
7694;DHT22;3889;48.162;11.510;2023-04-24T13:56:53;14.40;99.90
7694;DHT22;3889;48.162;11.510;2023-04-24T13:59:22;14.60;99.90
7694;DHT22;3889;48.162;11.510;2023-04-24T14:01:50;14.60;99.90
7694;DHT22;3889;48.162;11.510;2023-04-24T14:04:18;14.50;99.90
7694;DHT22;3889;48.162;11.510;2023-04-24T14:06:46;14.20;99.90
7694;DHT22;3889;48.162;11.510;2023-04-24T14:09:14;14.10;99.90
7694;DHT22;3889;48.162;11.510;2023-04-24T14:11:42;13.70;99.90
7694;DHT22;3889;48.162;11.510;2023-04-24T14:14:10;13.50;99.90
7694;DHT22;3889;48.162;11.510;2023-04-24T14:16:39;13.60;99.90
7694;DHT22;3889;48.162;11.510;2023-04-24T14:19:07;13.80;99.90
7694;DHT22;3889;48.162;11.510;2023-04-24T14:21:35;13.80;99.90
7694;DHT22;3889;48.162;11.510;2023-04-24T14:24:03;14.00;99.90
7694;DHT22;3889;48.162;11.510;2023-04-24T14:26:31;14.20;99.90
7694;DHT22;3889;48.162;11.510;2023-04-24T14:28:59;14.10;99.90
7694;DHT22;3889;48.162;11.510;2023-04-24T14:31:42;14.00;99.90
7694;DHT22;3889;48.162;11.510;2023-04-24T14:34:11;14.10;99.90
7694;DHT22;3889;48.162;11.510;2023-04-24T14:36:39;14.00;99.90
7694;DHT22;3889;48.162;11.510;2023-04-24T14:39:07;14.10;99.90
7694;DHT22;3889;48.162;11.510;2023-04-24T14:41:35;14.10;99.90
7694;DHT22;3889;48.162;11.510;2023-04-24T14:44:04;14.10;99.90
7694;DHT22;3889;48.162;11.510;2023-04-24T14:46:32;14.00;99.90
7694;DHT22;3889;48.162;11.510;2023-04-24T14:49:01;14.00;99.90
7694;DHT22;3889;48.162;11.510;2023-04-24T14:51:29;13.90;99.90
7694;DHT22;3889;48.162;11.510;2023-04-24T14:53:58;13.80;99.90
7694;DHT22;3889;48.162;11.510;2023-04-24T14:56:26;13.90;99.90
7694;DHT22;3889;48.162;11.510;2023-04-24T14:58:54;14.10;99.90
7694;DHT22;3889;48.162;11.510;2023-04-24T15:01:22;14.00;99.90
7694;DHT22;3889;48.162;11.510;2023-04-24T15:03:50;14.20;99.90
7694;DHT22;3889;48.162;11.510;2023-04-24T15:06:20;14.30;99.90
7694;DHT22;3889;48.162;11.510;2023-04-24T15:08:48;14.40;99.90
7694;DHT22;3889;48.162;11.510;2023-04-24T15:11:16;14.20;99.90
7694;DHT22;3889;48.162;11.510;2023-04-24T15:13:44;14.20;99.90
7694;DHT22;3889;48.162;11.510;2023-04-24T15:16:13;14.20;99.90
7694;DHT22;3889;48.162;11.510;2023-04-24T15:18:41;14.20;99.90
7694;DHT22;3889;48.162;11.510;2023-04-24T15:21:09;14.40;99.90
7694;DHT22;3889;48.162;11.510;2023-04-24T15:23:40;14.40;99.90
7694;DHT22;3889;48.162;11.510;2023-04-24T15:26:08;14.40;99.90
7694;DHT22;3889;48.162;11.510;2023-04-24T15:28:36;14.10;99.90
7694;DHT22;3889;48.162;11.510;2023-04-24T15:31:04;14.00;99.90
7694;DHT22;3889;48.162;11.510;2023-04-24T15:33:31;14.20;99.90
7694;DHT22;3889;48.162;11.510;2023-04-24T15:35:59;14.00;99.90
7694;DHT22;3889;48.162;11.510;2023-04-24T15:38:27;13.80;99.90
7694;DHT22;3889;48.162;11.510;2023-04-24T15:40:56;13.70;99.90
7694;DHT22;3889;48.162;11.510;2023-04-24T15:43:24;13.90;99.90
7694;DHT22;3889;48.162;11.510;2023-04-24T15:45:52;14.00;99.90
7694;DHT22;3889;48.162;11.510;2023-04-24T15:48:20;14.40;99.90
7694;DHT22;3889;48.162;11.510;2023-04-24T15:50:48;15.00;99.90
7694;DHT22;3889;48.162;11.510;2023-04-24T15:53:16;15.00;99.90
7694;DHT22;3889;48.162;11.510;2023-04-24T15:55:47;14.30;99.90
7694;DHT22;3889;48.162;11.510;2023-04-24T15:58:18;14.20;99.90
7694;DHT22;3889;48.162;11.510;2023-04-24T16:00:46;14.20;99.90